Aviation Digital Data Service (ADDS)

Output produced by METARs form (1805 UTC 19 October 2017)
found at http://www.aviationweather.gov/adds/metars/
 
LQBK 191800Z 16003KT CAVOK 12/08 Q1017 NOSIG
TAF LQBK 191700Z 1918/2018 VRB02KT CAVOK TX25/2013Z TN05/2005Z
       
LQMO 191800Z 12004KT CAVOK 17/13 Q1017
TAF LQMO 191700Z 1918/2018 20005KT CAVOK TX26/2013Z TN08/2004Z
       
LQSA 191800Z VRB01KT CAVOK 12/08 Q1018 NOSIG
TAF LQSA 191700Z 1918/2018 VRB02KT CAVOK TX22/2013Z TN05/2004Z 
     PROB30 
     TEMPO 2003/2008 0800 FG NSC
       
LQTZ 191800Z VRB01KT CAVOK 11/08 Q1017
TAF LQTZ 191700Z 1918/2018 VRB02KT CAVOK TX26/2014Z TN05/2004Z 
     BECMG 1921/1923 3000 BR 
     BECMG 1923/2001 0150 FG VV001 
     BECMG 2007/2009 CAVOK